createdAt,value
2023-04-26T00:00:50.038Z,99.90
2023-04-26T00:03:16.868Z,99.90
2023-04-26T00:05:43.748Z,99.90
2023-04-26T00:08:10.443Z,99.90
2023-04-26T00:10:37.234Z,99.90
2023-04-26T00:13:03.998Z,99.90
2023-04-26T00:15:30.893Z,99.90
2023-04-26T00:17:57.600Z,99.90
2023-04-26T00:20:24.795Z,99.90
2023-04-26T00:22:51.486Z,99.90
2023-04-26T00:25:18.344Z,99.90
2023-04-26T00:27:45.011Z,99.90
2023-04-26T00:30:12.209Z,99.90
2023-04-26T00:32:39.397Z,99.90
2023-04-26T00:35:06.521Z,99.90
2023-04-26T00:37:33.197Z,99.90
2023-04-26T00:39:59.866Z,99.90
2023-04-26T00:42:27.785Z,99.90
2023-04-26T00:44:57.363Z,99.90
2023-04-26T00:47:25.825Z,99.90
2023-04-26T00:49:53.230Z,99.90
2023-04-26T00:52:19.932Z,99.90
2023-04-26T00:54:48.752Z,99.90
2023-04-26T00:57:15.502Z,99.90
2023-04-26T00:59:42.164Z,99.90
2023-04-26T01:02:09.252Z,99.90
2023-04-26T01:04:37.241Z,99.90
2023-04-26T01:07:04.048Z,99.90
2023-04-26T01:09:32.085Z,99.90
2023-04-26T01:12:00.601Z,99.90
2023-04-26T01:14:28.238Z,99.90
2023-04-26T01:16:56.664Z,99.90
2023-04-26T01:19:23.440Z,99.90
2023-04-26T01:21:50.107Z,99.90
2023-04-26T01:24:16.862Z,99.90
2023-04-26T01:26:46.594Z,99.90
2023-04-26T01:29:20.378Z,99.90
2023-04-26T01:31:48.112Z,99.90
2023-04-26T01:34:15.684Z,99.90
2023-04-26T01:36:42.704Z,99.90
2023-04-26T01:39:09.573Z,99.90
2023-04-26T01:41:36.692Z,99.90
2023-04-26T01:44:03.974Z,99.90
2023-04-26T01:46:30.801Z,99.90
2023-04-26T01:48:57.668Z,99.90
2023-04-26T01:51:24.429Z,99.90
2023-04-26T01:53:51.155Z,99.90
2023-04-26T01:56:18.546Z,99.90
2023-04-26T01:58:45.648Z,99.90
2023-04-26T02:01:12.529Z,99.90
2023-04-26T02:03:39.427Z,99.90
2023-04-26T02:06:06.446Z,99.90
2023-04-26T02:08:33.589Z,99.90
2023-04-26T02:11:00.436Z,99.90
2023-04-26T02:13:27.335Z,99.90
2023-04-26T02:15:54.055Z,99.90
2023-04-26T02:18:22.548Z,99.90
2023-04-26T02:20:49.321Z,99.90
2023-04-26T02:23:16.624Z,99.90
2023-04-26T02:25:47.561Z,99.90
2023-04-26T02:28:16.323Z,99.90
2023-04-26T02:30:43.235Z,99.90
2023-04-26T02:33:10.134Z,99.90
2023-04-26T02:35:37.495Z,99.90
2023-04-26T02:38:04.506Z,99.90
2023-04-26T02:40:31.361Z,99.90
2023-04-26T02:42:58.109Z,99.90
2023-04-26T02:45:24.849Z,99.90
2023-04-26T02:47:51.590Z,99.90
2023-04-26T02:50:18.357Z,99.90
2023-04-26T02:52:45.039Z,99.90
2023-04-26T02:55:11.672Z,99.90
2023-04-26T02:57:38.554Z,99.90
2023-04-26T03:00:05.934Z,99.90
2023-04-26T03:02:33.404Z,99.90
2023-04-26T03:05:00.412Z,99.90
2023-04-26T03:07:27.167Z,99.90
2023-04-26T03:09:53.810Z,99.90
2023-04-26T03:12:20.480Z,99.90
2023-04-26T03:14:47.281Z,99.90
2023-04-26T03:17:13.971Z,99.90
2023-04-26T03:19:40.732Z,99.90
2023-04-26T03:22:07.588Z,99.90
2023-04-26T03:24:34.288Z,99.90
2023-04-26T03:27:01.177Z,99.90
2023-04-26T03:29:27.849Z,99.90
2023-04-26T03:31:54.736Z,99.90
2023-04-26T03:34:21.783Z,99.90
2023-04-26T03:36:48.522Z,99.90
2023-04-26T03:39:16.490Z,99.90
2023-04-26T03:41:43.275Z,99.90
2023-04-26T03:44:10.005Z,99.90
2023-04-26T03:46:36.669Z,99.90
2023-04-26T03:49:03.434Z,99.90
2023-04-26T03:51:31.441Z,99.90
2023-04-26T03:53:59.600Z,99.90
2023-04-26T03:56:26.270Z,99.90
2023-04-26T03:58:53.089Z,99.90
2023-04-26T04:01:20.579Z,99.90
2023-04-26T04:03:47.586Z,99.90
2023-04-26T04:06:14.554Z,99.90
2023-04-26T04:08:41.482Z,99.90
2023-04-26T04:11:08.154Z,99.90
2023-04-26T04:13:34.882Z,99.90
2023-04-26T04:16:01.724Z,99.90
2023-04-26T04:18:28.526Z,99.90
2023-04-26T04:20:55.249Z,99.90
2023-04-26T04:23:22.013Z,99.90
2023-04-26T04:25:49.192Z,99.90
2023-04-26T04:28:16.498Z,99.90
2023-04-26T04:30:44.227Z,99.90
2023-04-26T04:33:10.918Z,99.90
2023-04-26T04:35:37.633Z,99.90
2023-04-26T04:38:04.620Z,99.90
2023-04-26T04:40:31.406Z,99.90
2023-04-26T04:42:58.196Z,99.90
2023-04-26T04:45:24.894Z,99.90
2023-04-26T04:47:54.023Z,99.90
2023-04-26T04:50:21.788Z,99.90
2023-04-26T04:52:48.445Z,99.90
2023-04-26T04:55:15.142Z,99.90
2023-04-26T04:57:42.980Z,99.90
2023-04-26T05:00:10.772Z,99.90
2023-04-26T05:02:37.842Z,99.90
2023-04-26T05:05:05.610Z,99.90
2023-04-26T05:07:32.773Z,99.90
2023-04-26T05:10:00.186Z,99.90
2023-04-26T05:12:27.441Z,99.90
2023-04-26T05:14:54.146Z,99.90
2023-04-26T05:17:20.938Z,99.90
2023-04-26T05:19:48.249Z,99.90
2023-04-26T05:22:18.431Z,99.90
2023-04-26T05:24:47.024Z,99.90
2023-04-26T05:27:14.397Z,99.90
2023-04-26T05:29:41.834Z,99.90
2023-04-26T05:32:08.873Z,99.90
2023-04-26T05:34:36.758Z,99.90
2023-04-26T05:37:03.665Z,99.90
2023-04-26T05:39:30.755Z,99.90
2023-04-26T05:41:57.478Z,99.90
2023-04-26T05:44:24.670Z,99.90
2023-04-26T05:46:51.455Z,99.90
2023-04-26T05:49:18.253Z,99.90
2023-04-26T05:51:44.949Z,99.90
2023-04-26T05:54:11.711Z,99.90
2023-04-26T05:56:39.525Z,99.90
2023-04-26T05:59:06.214Z,99.90
2023-04-26T06:01:32.927Z,99.90
2023-04-26T06:04:01.202Z,99.90
2023-04-26T06:06:28.565Z,99.90
2023-04-26T06:08:55.674Z,99.90
2023-04-26T06:11:22.519Z,99.90
2023-04-26T06:13:49.473Z,99.90
2023-04-26T06:16:16.784Z,99.90
2023-04-26T06:18:43.886Z,99.90
2023-04-26T06:21:10.565Z,99.90
2023-04-26T06:23:37.286Z,99.90
2023-04-26T06:26:03.993Z,99.90
2023-04-26T06:28:31.070Z,99.90
2023-04-26T06:30:57.852Z,99.90
2023-04-26T06:33:24.607Z,99.90
2023-04-26T06:35:52.398Z,99.90
2023-04-26T06:38:19.115Z,99.90
2023-04-26T06:40:45.807Z,99.90
2023-04-26T06:43:12.481Z,99.90
2023-04-26T06:45:40.565Z,99.90
2023-04-26T06:48:08.496Z,99.90
2023-04-26T06:50:38.953Z,99.90
2023-04-26T06:53:07.037Z,99.90
2023-04-26T06:55:35.052Z,99.90
2023-04-26T06:58:01.856Z,99.90
2023-04-26T07:00:29.996Z,99.90
2023-04-26T07:02:57.337Z,99.90
2023-04-26T07:05:24.227Z,99.90
2023-04-26T07:07:50.983Z,99.90
2023-04-26T07:10:17.728Z,99.90
2023-04-26T07:12:44.873Z,99.90
2023-04-26T07:15:12.353Z,99.90
2023-04-26T07:17:39.224Z,99.90
2023-04-26T07:20:06.726Z,99.90
2023-04-26T07:22:33.459Z,99.90
2023-04-26T07:25:00.495Z,99.90
2023-04-26T07:27:27.262Z,99.90
2023-04-26T07:29:55.373Z,99.90
2023-04-26T07:32:22.346Z,99.90
2023-04-26T07:34:49.108Z,99.90
2023-04-26T07:37:16.164Z,99.90
2023-04-26T07:39:42.843Z,99.90
2023-04-26T07:42:09.556Z,99.90
2023-04-26T07:44:36.413Z,99.90
2023-04-26T07:47:03.332Z,99.90
2023-04-26T07:49:30.041Z,99.90
2023-04-26T07:51:58.208Z,99.90
2023-04-26T07:54:25.257Z,99.90
2023-04-26T07:56:51.920Z,99.90
2023-04-26T07:59:18.591Z,99.90
2023-04-26T08:01:45.344Z,99.90
2023-04-26T08:04:12.452Z,99.90
2023-04-26T08:06:44.939Z,99.90
2023-04-26T08:09:11.710Z,99.90
2023-04-26T08:11:38.463Z,99.90
2023-04-26T08:14:05.314Z,99.90
2023-04-26T08:16:32.165Z,99.90
2023-04-26T08:19:02.822Z,99.90
2023-04-26T08:21:29.733Z,99.90
2023-04-26T08:23:56.537Z,99.90
2023-04-26T08:26:23.523Z,99.90
2023-04-26T08:28:50.311Z,99.90
2023-04-26T08:31:17.812Z,99.90
2023-04-26T08:33:44.766Z,99.90
2023-04-26T08:36:11.508Z,99.90
2023-04-26T08:38:38.196Z,99.90
2023-04-26T08:41:05.504Z,99.90
2023-04-26T08:43:35.538Z,99.90
2023-04-26T08:46:03.863Z,99.90
2023-04-26T08:48:34.180Z,99.90
2023-04-26T08:51:01.811Z,99.90
2023-04-26T08:53:30.332Z,99.90
2023-04-26T08:55:58.145Z,99.90
2023-04-26T08:58:25.022Z,99.90
2023-04-26T09:00:52.338Z,99.90
2023-04-26T09:03:19.269Z,99.90
2023-04-26T09:05:46.097Z,99.90
2023-04-26T09:08:19.782Z,98.00
2023-04-26T09:10:46.692Z,98.90
2023-04-26T09:13:14.487Z,92.20
2023-04-26T09:15:41.885Z,98.20
2023-04-26T09:18:19.725Z,95.80
2023-04-26T09:21:01.850Z,96.70
2023-04-26T09:23:28.505Z,96.70
2023-04-26T09:25:55.467Z,96.90
2023-04-26T09:28:24.105Z,96.00
2023-04-26T09:30:50.922Z,97.40
2023-04-26T09:33:19.470Z,95.80
2023-04-26T09:35:46.502Z,96.40
2023-04-26T09:38:19.387Z,94.80
2023-04-26T09:40:47.796Z,90.40
2023-04-26T09:43:16.632Z,92.60
2023-04-26T09:45:47.229Z,98.30
2023-04-26T09:48:25.929Z,99.90
2023-04-26T09:50:56.862Z,97.80
2023-04-26T09:53:27.850Z,95.30
2023-04-26T09:56:08.173Z,96.70
2023-04-26T09:58:39.157Z,95.60
2023-04-26T10:01:08.552Z,93.20
2023-04-26T10:03:37.176Z,94.30
2023-04-26T10:06:04.800Z,85.80
2023-04-26T10:08:33.004Z,91.70
2023-04-26T10:11:01.820Z,94.30
2023-04-26T10:13:28.608Z,90.80
2023-04-26T10:15:56.578Z,91.30
2023-04-26T10:18:23.395Z,90.30
2023-04-26T10:20:53.711Z,86.20
2023-04-26T10:23:25.792Z,91.70
2023-04-26T10:25:53.182Z,91.50
2023-04-26T10:28:39.791Z,89.30
2023-04-26T10:31:07.775Z,78.20
2023-04-26T10:33:34.488Z,72.50
2023-04-26T10:36:07.228Z,80.00
2023-04-26T10:38:39.869Z,85.20
2023-04-26T10:41:33.282Z,74.60
2023-04-26T10:44:22.032Z,72.50
2023-04-26T10:46:55.073Z,75.70
2023-04-26T10:49:24.974Z,77.80
2023-04-26T10:52:12.775Z,81.00
2023-04-26T10:54:58.999Z,84.30
2023-04-26T10:57:49.666Z,80.00
2023-04-26T11:00:17.726Z,80.00
2023-04-26T11:02:58.106Z,81.10
2023-04-26T11:05:43.615Z,82.20
2023-04-26T11:08:30.203Z,85.80
2023-04-26T11:11:10.491Z,82.60
2023-04-26T11:13:38.661Z,82.60
2023-04-26T11:16:07.987Z,87.30
2023-04-26T11:18:36.582Z,89.00
2023-04-26T11:21:05.243Z,83.60
2023-04-26T11:23:32.262Z,73.80
2023-04-26T11:26:08.391Z,78.30
2023-04-26T11:28:37.317Z,73.50
2023-04-26T11:31:05.262Z,73.10
2023-04-26T11:33:34.213Z,69.60
2023-04-26T11:36:02.198Z,69.30
2023-04-26T11:38:29.446Z,63.20
2023-04-26T11:41:03.120Z,66.20
2023-04-26T11:43:36.765Z,70.40
2023-04-26T11:46:08.407Z,76.90
2023-04-26T11:48:37.516Z,73.90
2023-04-26T11:51:05.978Z,62.70
2023-04-26T11:53:42.996Z,66.60
2023-04-26T11:56:20.289Z,63.40
2023-04-26T11:58:52.786Z,71.60
2023-04-26T12:01:23.893Z,67.30
2023-04-26T12:03:53.001Z,71.80
2023-04-26T12:06:21.005Z,61.90
2023-04-26T12:08:53.802Z,62.20
2023-04-26T12:11:21.268Z,65.30
2023-04-26T12:13:48.410Z,69.10
2023-04-26T12:16:25.748Z,70.70
2023-04-26T12:18:55.288Z,67.30
2023-04-26T12:21:22.648Z,63.50
2023-04-26T12:23:49.483Z,64.30
2023-04-26T12:26:16.795Z,69.80
2023-04-26T12:28:44.066Z,70.00
2023-04-26T12:31:11.303Z,73.40
2023-04-26T12:33:38.127Z,74.80
2023-04-26T12:36:12.104Z,61.90
2023-04-26T12:38:39.954Z,59.10
2023-04-26T12:41:06.962Z,56.60
2023-04-26T12:43:33.776Z,62.80
2023-04-26T12:46:01.468Z,63.50
2023-04-26T12:48:28.936Z,66.20
2023-04-26T12:50:55.919Z,61.90
2023-04-26T12:53:22.803Z,63.20
2023-04-26T12:55:49.524Z,59.00
2023-04-26T12:58:16.436Z,61.10
2023-04-26T13:00:44.641Z,63.00
2023-04-26T13:03:14.549Z,66.40
2023-04-26T13:05:41.918Z,65.50
2023-04-26T13:08:08.883Z,62.80
2023-04-26T13:10:35.828Z,62.80
2023-04-26T13:13:02.773Z,61.00
2023-04-26T13:15:30.104Z,66.00
2023-04-26T13:17:57.036Z,71.50
2023-04-26T13:20:25.993Z,66.60
2023-04-26T13:22:54.006Z,64.00
2023-04-26T13:25:20.672Z,56.50
2023-04-26T13:27:47.399Z,55.10
2023-04-26T13:30:14.708Z,56.20
2023-04-26T13:32:41.480Z,60.60
2023-04-26T13:35:08.689Z,59.20
2023-04-26T13:37:35.707Z,55.10
2023-04-26T13:40:04.198Z,53.70
2023-04-26T13:42:31.977Z,55.50
2023-04-26T13:44:58.760Z,54.50
2023-04-26T13:47:25.850Z,59.60
2023-04-26T13:49:52.593Z,59.90
2023-04-26T13:52:19.279Z,63.20
2023-04-26T13:54:46.112Z,66.20
2023-04-26T13:57:13.022Z,60.00
2023-04-26T13:59:40.668Z,54.20
2023-04-26T14:02:07.513Z,51.20
2023-04-26T14:04:34.674Z,56.70
2023-04-26T14:07:01.609Z,58.20
2023-04-26T14:09:28.286Z,55.20
2023-04-26T14:12:07.362Z,60.50
2023-04-26T14:14:34.947Z,60.00
2023-04-26T14:17:01.859Z,59.30
2023-04-26T14:19:28.656Z,64.10
2023-04-26T14:21:55.442Z,63.40
2023-04-26T14:24:22.138Z,65.70
2023-04-26T14:26:49.002Z,62.20
2023-04-26T14:29:15.865Z,61.70
2023-04-26T14:31:42.593Z,65.70
2023-04-26T14:34:09.381Z,56.20
2023-04-26T14:36:36.153Z,59.20
2023-04-26T14:39:03.024Z,53.90
2023-04-26T14:41:29.681Z,57.30
2023-04-26T14:43:56.396Z,59.60
2023-04-26T14:46:23.194Z,58.00
2023-04-26T14:48:49.904Z,51.50
2023-04-26T14:51:16.798Z,53.40
2023-04-26T14:53:43.533Z,51.00
2023-04-26T14:56:10.258Z,53.80
2023-04-26T14:58:37.089Z,52.90
2023-04-26T15:01:04.500Z,55.30
2023-04-26T15:03:32.761Z,60.50
2023-04-26T15:06:00.179Z,63.70
2023-04-26T15:08:26.985Z,60.70
2023-04-26T15:10:53.970Z,60.70
2023-04-26T15:13:20.808Z,59.30
2023-04-26T15:15:47.540Z,66.90
2023-04-26T15:18:14.408Z,60.00
2023-04-26T15:20:41.575Z,61.60
2023-04-26T15:23:08.575Z,58.00
2023-04-26T15:25:36.887Z,53.00
2023-04-26T15:28:04.102Z,54.30
2023-04-26T15:30:31.069Z,59.20
2023-04-26T15:32:58.063Z,54.70
2023-04-26T15:35:25.138Z,50.60
2023-04-26T15:37:53.961Z,54.80
2023-04-26T15:40:22.224Z,53.40
2023-04-26T15:42:49.456Z,57.40
2023-04-26T15:45:16.824Z,54.70
2023-04-26T15:47:43.887Z,57.50
2023-04-26T15:50:10.953Z,53.30
2023-04-26T15:52:39.407Z,55.60
2023-04-26T15:55:07.449Z,54.30
2023-04-26T15:57:34.816Z,55.50
2023-04-26T16:00:01.819Z,58.20
2023-04-26T16:02:28.783Z,57.20
2023-04-26T16:04:56.400Z,62.80
2023-04-26T16:07:23.558Z,61.00
2023-04-26T16:09:50.522Z,55.20
2023-04-26T16:12:17.257Z,56.10
2023-04-26T16:14:43.946Z,57.60
2023-04-26T16:17:10.695Z,56.30
2023-04-26T16:19:37.549Z,55.60
2023-04-26T16:22:04.417Z,59.20
2023-04-26T16:24:31.249Z,59.00
2023-04-26T16:26:58.019Z,58.50
2023-04-26T16:29:25.250Z,63.20
2023-04-26T16:31:52.658Z,66.30
2023-04-26T16:34:20.044Z,67.00
2023-04-26T16:36:46.901Z,65.40
2023-04-26T16:39:15.757Z,62.60
2023-04-26T16:41:43.137Z,62.50
2023-04-26T16:44:10.221Z,61.00
2023-04-26T16:46:37.484Z,59.50
2023-04-26T16:49:09.420Z,61.60
2023-04-26T16:51:37.584Z,63.00
2023-04-26T16:54:04.469Z,68.80
2023-04-26T16:56:32.123Z,66.60
2023-04-26T16:58:59.192Z,66.60
2023-04-26T17:01:26.194Z,67.70
2023-04-26T17:03:53.302Z,69.40
2023-04-26T17:06:20.434Z,69.10
2023-04-26T17:08:47.582Z,69.00
2023-04-26T17:11:17.856Z,72.10
2023-04-26T17:13:45.096Z,72.30
2023-04-26T17:16:12.208Z,74.00
2023-04-26T17:18:38.961Z,76.20
2023-04-26T17:21:06.182Z,78.50
2023-04-26T17:23:33.772Z,77.90
2023-04-26T17:26:02.013Z,77.60
2023-04-26T17:28:28.925Z,80.10
2023-04-26T17:30:55.756Z,81.60
2023-04-26T17:33:23.112Z,82.10
2023-04-26T17:35:50.194Z,82.70
2023-04-26T17:38:17.090Z,83.30
2023-04-26T17:40:43.791Z,85.90
2023-04-26T17:43:11.467Z,85.50
2023-04-26T17:45:38.286Z,90.00
2023-04-26T17:48:05.598Z,90.50
2023-04-26T17:50:32.314Z,90.50
2023-04-26T17:52:59.049Z,90.50
2023-04-26T17:55:26.103Z,92.10
2023-04-26T17:57:52.831Z,92.80
2023-04-26T18:00:19.885Z,92.70
2023-04-26T18:02:47.324Z,95.60
2023-04-26T18:05:14.511Z,97.40
2023-04-26T18:07:41.376Z,96.50
2023-04-26T18:10:08.758Z,96.30
2023-04-26T18:12:36.291Z,95.50
2023-04-26T18:15:03.355Z,97.50
2023-04-26T18:17:30.255Z,96.90
2023-04-26T18:19:57.006Z,96.80
2023-04-26T18:22:23.737Z,95.20
2023-04-26T18:24:50.467Z,96.40
2023-04-26T18:27:17.246Z,97.90
2023-04-26T18:29:44.095Z,99.70
2023-04-26T18:32:10.854Z,99.90
2023-04-26T18:34:37.646Z,99.90
2023-04-26T18:37:04.901Z,99.90
2023-04-26T18:39:31.703Z,99.90
2023-04-26T18:41:58.477Z,99.90
2023-04-26T18:44:25.198Z,99.90
2023-04-26T18:46:55.730Z,99.90
2023-04-26T18:49:23.390Z,99.90
2023-04-26T18:51:50.303Z,99.90
2023-04-26T18:54:17.036Z,99.90
2023-04-26T18:56:44.099Z,99.90
2023-04-26T18:59:11.115Z,99.90
2023-04-26T19:01:37.928Z,99.90
2023-04-26T19:04:05.015Z,99.90
2023-04-26T19:06:33.108Z,99.90
2023-04-26T19:09:01.045Z,99.90
2023-04-26T19:11:27.769Z,99.90
2023-04-26T19:13:54.470Z,99.90
2023-04-26T19:16:21.276Z,99.90
2023-04-26T19:18:49.098Z,99.90
2023-04-26T19:21:16.309Z,99.90
2023-04-26T19:23:44.815Z,99.90
2023-04-26T19:26:12.853Z,99.90
2023-04-26T19:28:39.654Z,99.90
2023-04-26T19:31:06.690Z,99.90
2023-04-26T19:33:33.412Z,99.90
2023-04-26T19:36:00.119Z,99.90
2023-04-26T19:38:26.963Z,99.90
2023-04-26T19:40:53.662Z,99.90
2023-04-26T19:43:21.098Z,99.90
2023-04-26T19:45:48.058Z,99.90
2023-04-26T19:48:15.054Z,99.90
2023-04-26T19:50:43.312Z,99.90
2023-04-26T19:53:11.403Z,99.90
2023-04-26T19:55:38.738Z,99.90
2023-04-26T19:58:06.097Z,99.90
2023-04-26T20:00:36.179Z,99.90
2023-04-26T20:03:03.203Z,99.90
2023-04-26T20:05:30.031Z,99.90
2023-04-26T20:07:57.460Z,99.90
2023-04-26T20:10:24.906Z,99.90
2023-04-26T20:12:51.979Z,99.90
2023-04-26T20:15:19.247Z,99.90
2023-04-26T20:17:46.149Z,99.90
2023-04-26T20:20:13.141Z,99.90
2023-04-26T20:22:40.815Z,99.90
2023-04-26T20:25:08.151Z,99.90
2023-04-26T20:27:34.881Z,99.90
2023-04-26T20:30:01.762Z,99.90
2023-04-26T20:32:28.625Z,99.90
2023-04-26T20:34:55.410Z,99.90
2023-04-26T20:37:22.179Z,99.90
2023-04-26T20:39:49.164Z,99.90
2023-04-26T20:42:16.189Z,99.90
2023-04-26T20:44:43.221Z,99.90
2023-04-26T20:47:09.951Z,99.90
2023-04-26T20:49:36.739Z,99.90
2023-04-26T20:52:03.883Z,99.90
2023-04-26T20:54:31.244Z,99.90
2023-04-26T20:56:57.935Z,99.90
2023-04-26T20:59:25.238Z,99.90
2023-04-26T21:01:53.650Z,99.90
2023-04-26T21:04:20.924Z,99.90
2023-04-26T21:06:47.912Z,99.90
2023-04-26T21:09:14.639Z,99.90
2023-04-26T21:11:41.556Z,99.90
2023-04-26T21:14:09.137Z,99.90
2023-04-26T21:16:35.981Z,99.90
2023-04-26T21:19:03.353Z,99.90
2023-04-26T21:21:30.134Z,99.90
2023-04-26T21:23:56.842Z,99.90
2023-04-26T21:26:23.546Z,99.90
2023-04-26T21:28:50.304Z,99.90
2023-04-26T21:31:17.174Z,99.90
2023-04-26T21:33:43.911Z,99.90
2023-04-26T21:36:10.684Z,99.90
2023-04-26T21:38:37.366Z,99.90
2023-04-26T21:41:04.080Z,99.90
2023-04-26T21:43:31.098Z,99.90
2023-04-26T21:45:58.507Z,99.90
2023-04-26T21:48:26.222Z,99.90
2023-04-26T21:50:53.256Z,99.90
2023-04-26T21:53:19.929Z,99.90
2023-04-26T21:55:53.881Z,99.90
2023-04-26T21:58:21.509Z,99.90
2023-04-26T22:00:48.850Z,99.90
2023-04-26T22:03:16.483Z,99.90
2023-04-26T22:05:43.345Z,99.90
2023-04-26T22:08:10.085Z,99.90
2023-04-26T22:10:36.856Z,99.90
2023-04-26T22:13:03.673Z,99.90
2023-04-26T22:15:30.770Z,99.90
2023-04-26T22:17:57.619Z,99.90
2023-04-26T22:20:24.440Z,99.90
2023-04-26T22:22:51.137Z,99.90
2023-04-26T22:25:17.839Z,99.90
2023-04-26T22:27:44.520Z,99.90
2023-04-26T22:30:23.136Z,99.90
2023-04-26T22:32:52.828Z,99.90
2023-04-26T22:35:23.786Z,99.90
2023-04-26T22:37:50.819Z,99.90
2023-04-26T22:40:17.537Z,99.90
2023-04-26T22:42:44.779Z,99.90
2023-04-26T22:45:12.729Z,99.90
2023-04-26T22:47:40.888Z,99.90
2023-04-26T22:50:08.441Z,99.90
2023-04-26T22:52:35.793Z,99.90
2023-04-26T22:55:02.719Z,99.90
2023-04-26T22:57:30.096Z,99.90
2023-04-26T22:59:57.047Z,99.90
2023-04-26T23:02:24.298Z,99.90
2023-04-26T23:04:51.408Z,99.90
2023-04-26T23:07:18.182Z,99.90
2023-04-26T23:09:44.920Z,99.90
2023-04-26T23:12:11.763Z,99.90
2023-04-26T23:14:38.455Z,99.90
2023-04-26T23:17:05.742Z,99.90
2023-04-26T23:19:33.182Z,99.90
2023-04-26T23:22:00.170Z,99.90
2023-04-26T23:24:27.072Z,99.90
2023-04-26T23:26:54.044Z,99.90
2023-04-26T23:29:20.984Z,99.90
2023-04-26T23:31:47.826Z,99.90
2023-04-26T23:34:14.582Z,99.90
2023-04-26T23:36:41.581Z,99.90
2023-04-26T23:39:08.867Z,99.90
2023-04-26T23:41:35.893Z,99.90
2023-04-26T23:44:02.599Z,99.90
2023-04-26T23:46:29.419Z,99.90
2023-04-26T23:48:56.283Z,99.90
2023-04-26T23:51:23.004Z,99.90
2023-04-26T23:53:49.708Z,99.90
2023-04-26T23:56:16.515Z,99.90
2023-04-26T23:58:43.164Z,99.90
